KSFY

Details ICAO KSFY
Name TRI TOWNSHIP
Region United States
Timezone America/Chicago (UTC-6.0)
Plans Departing 1
Arriving 7
Stats Elevation 616 ft / 188 m (AMSL)
Location 42.045839° -90.107942°
Runways 1
Magnetic Variation 1.994° W
Sunrise 2017-12-14 13:22:29 UTC / 2017-12-14 07:22:29 Local
Sunset 2017-12-14 22:30:47 UTC / 2017-12-14 16:30:47 Local
Advertisement - Login to hide

Runways

ID Width Length Bearing (true) Bearing (mag) Surface Threshold Offset Overrun Length
14 60 ft / 18 m 3,999 ft / 1,219 m 135.58° 137.57° Asphalt 0 ft / 0 m 0 ft / 0 m
32 60 ft / 18 m 3,999 ft / 1,219 m 315.59° 317.58° Asphalt 0 ft / 0 m 0 ft / 0 m

Map

Weather


0- 5 10 15 20 25 30 35+ Temperature / ° C

Clouds and Precipitation
Forecast for 2017-12-15 00:00 UTC. Updated 10 minutes ago

Ground ~20,000 ft ~40,000 ft Winds

METAR

KSFY 142135Z AUTO 21003KT 10SM CLR M03/M11 A3007 RMK AO2 T10331110

TAF

Not found

Frequencies

Recorded 118.65 MHz AWOS 3
Approach 125.95 MHz QUAD CITY APP/DEP
Unicom 122.70 MHz CTAF/UNICOM
Warning: Do not use this data for real-world aviation or navigation. No guarantee of current accuracy is given.